Tongan II — 5BES4 — position and weather

sailwx.info

Track history (hours):
 
Tides and Currents Weather Stations Pressure Air Temp Water Temp Dewpoint Dewpoint Depression Visibility Wind Speed Wind Dir Waves Ship Positions

Tongan II

Last reported at 2017-Dec-11 17:01 UTC. Time now 2017-Dec-14 13:21 UTC.
Position N 37°52' E 023°33'.

Length 180 m; draft 8.4 m.

Type: Ship (hazmat cat A). MMSI: 212267000.

Date/timePositionNaut miles runAvg speedWind from/ knotsBaromVisibWave heightAir tempDewpointWater temp
2017-Dec-11 17:01N 37°52' E 023°33'0 0.1
2017-Dec-11 16:31N 37°52' E 023°33'0 0.0
2017-Dec-11 16:01N 37°52' E 023°33'0 0.0
2017-Dec-11 15:31N 37°52' E 023°33'0 0.0
2017-Dec-11 15:01N 37°52' E 023°33'0 0.0
2017-Dec-11 14:31N 37°52' E 023°33'0 0.1
2017-Dec-11 14:01N 37°52' E 023°33'0 0.1
2017-Dec-11 13:31N 37°52' E 023°33'0 0.1
2017-Dec-11 13:01N 37°52' E 023°33'0 0.0
2017-Dec-11 12:31N 37°52' E 023°33'0 0.0
2017-Dec-11 12:01N 37°52' E 023°33'0 0.1
2017-Dec-11 11:31N 37°52' E 023°33'0 0.0
2017-Dec-11 11:01N 37°52' E 023°33'0 0.0
2017-Dec-11 10:31N 37°52' E 023°33'0 0.1
2017-Dec-11 10:01N 37°52' E 023°33'0 0.0
2017-Dec-11 09:31N 37°52' E 023°33'0 0.2
2017-Dec-11 09:00N 37°52' E 023°33'2 3.8
2017-Dec-11 08:30N 37°54' E 023°33'2 4.4
2017-Dec-11 08:01N 37°53' E 023°36'713.6
2017-Dec-11 07:31N 37°47' E 023°41'815.2
2017-Dec-11 07:00N 37°41' E 023°45'713.1
2017-Dec-11 06:30N 37°34' E 023°44'611.4
2017-Dec-11 06:01N 37°29' E 023°43'611.6
2017-Dec-11 05:28N 37°22' E 023°41'611.4
2017-Dec-11 04:57N 37°17' E 023°40'611.2
2017-Dec-11 04:24N 37°11' E 023°38'611.4
2017-Dec-11 03:51N 37°04' E 023°36'1511.6
2017-Dec-11 02:35N 36°50' E 023°32'1311.4
2017-Dec-11 01:28N 36°39' E 023°25'  
2017-Dec-08 12:34N 44°17' E 014°20'110.5
2017-Dec-08 12:30N 44°18' E 014°19'510.6
2017-Dec-08 12:00N 44°22' E 014°16'510.6
2017-Dec-08 11:30N 44°27' E 014°12'510.1
2017-Dec-08 11:01N 44°32' E 014°10'510.3
2017-Dec-08 10:30N 44°37' E 014°10'510.2
2017-Dec-08 10:00N 44°42' E 014°12'5 9.9
2017-Dec-08 09:31N 44°47' E 014°13'510.1
2017-Dec-08 09:00N 44°52' E 014°13'510.2
2017-Dec-08 08:30N 44°57' E 014°13'610.7
2017-Dec-08 07:58N 45°03' E 014°14'510.8
2017-Dec-08 07:30N 45°08' E 014°14'610.9
2017-Dec-08 06:59N 45°13' E 014°19'510.7
2017-Dec-08 06:30N 45°16' E 014°24'3 0.3
2017-Dec-07 19:49N 45°19' E 014°27'2 6.7
2017-Dec-07 19:30N 45°18' E 014°25'713.2
2017-Dec-07 19:00N 45°13' E 014°19'612.8
2017-Dec-07 18:30N 45°07' E 014°15'712.9
2017-Dec-07 18:00N 45°00' E 014°15'612.9
2017-Dec-07 17:30N 44°54' E 014°14'713.1
2017-Dec-07 17:00N 44°47' E 014°14'613.0
2017-Dec-07 16:30N 44°41' E 014°13'612.9
2017-Dec-07 16:00N 44°34' E 014°12'612.5
2017-Dec-07 15:30N 44°28' E 014°13'912.8
2017-Dec-07 14:50N 44°22' E 014°21'412.8
2017-Dec-07 14:30N 44°19' E 014°25'  
2017-Dec-04 08:51N 37°59' E 015°32'514.9
2017-Dec-04 08:30N 38°04' E 015°34'714.2
2017-Dec-04 08:00N 38°11' E 015°35'713.0
2017-Dec-04 07:28N 38°17' E 015°41'714.7
2017-Dec-04 07:01N 38°22' E 015°46'712.9
2017-Dec-04 06:30N 38°27' E 015°52'  
2017-Dec-01 21:12N 38°28' E 015°55'0 0.0
2017-Dec-01 20:24N 38°28' E 015°55'0 0.0
2017-Dec-01 18:06N 38°28' E 015°55'  
Track history (hours):
 
Tides and Currents Weather Stations Pressure Air Temp Water Temp Dewpoint Dewpoint Depression Visibility Wind Speed Wind Dir Waves Ship Positions

Tongan II

Last reported at 2017-Dec-11 17:01 UTC. Time now 2017-Dec-14 13:21 UTC.
Position N 37°52' E 023°33'.

Length 180 m; draft 8.4 m.

Type: Ship (hazmat cat A). MMSI: 212267000.

Date/timePositionNaut miles runAvg speedWind from/ knotsBaromVisibWave heightAir tempDewpointWater temp
2017-Dec-11 17:01N 37°52' E 023°33'0 0.1
2017-Dec-11 16:31N 37°52' E 023°33'0 0.0
2017-Dec-11 16:01N 37°52' E 023°33'0 0.0
2017-Dec-11 15:31N 37°52' E 023°33'0 0.0
2017-Dec-11 15:01N 37°52' E 023°33'0 0.0
2017-Dec-11 14:31N 37°52' E 023°33'0 0.1
2017-Dec-11 14:01N 37°52' E 023°33'0 0.1
2017-Dec-11 13:31N 37°52' E 023°33'0 0.1
2017-Dec-11 13:01N 37°52' E 023°33'0 0.0
2017-Dec-11 12:31N 37°52' E 023°33'0 0.0
2017-Dec-11 12:01N 37°52' E 023°33'0 0.1
2017-Dec-11 11:31N 37°52' E 023°33'0 0.0
2017-Dec-11 11:01N 37°52' E 023°33'0 0.0
2017-Dec-11 10:31N 37°52' E 023°33'0 0.1
2017-Dec-11 10:01N 37°52' E 023°33'0 0.0
2017-Dec-11 09:31N 37°52' E 023°33'0 0.2
2017-Dec-11 09:00N 37°52' E 023°33'2 3.8
2017-Dec-11 08:30N 37°54' E 023°33'2 4.4
2017-Dec-11 08:01N 37°53' E 023°36'713.6
2017-Dec-11 07:31N 37°47' E 023°41'815.2
2017-Dec-11 07:00N 37°41' E 023°45'713.1
2017-Dec-11 06:30N 37°34' E 023°44'611.4
2017-Dec-11 06:01N 37°29' E 023°43'611.6
2017-Dec-11 05:28N 37°22' E 023°41'611.4
2017-Dec-11 04:57N 37°17' E 023°40'611.2
2017-Dec-11 04:24N 37°11' E 023°38'611.4
2017-Dec-11 03:51N 37°04' E 023°36'1511.6
2017-Dec-11 02:35N 36°50' E 023°32'1311.4
2017-Dec-11 01:28N 36°39' E 023°25'  
2017-Dec-08 12:34N 44°17' E 014°20'110.5
2017-Dec-08 12:30N 44°18' E 014°19'510.6
2017-Dec-08 12:00N 44°22' E 014°16'510.6
2017-Dec-08 11:30N 44°27' E 014°12'510.1
2017-Dec-08 11:01N 44°32' E 014°10'510.3
2017-Dec-08 10:30N 44°37' E 014°10'510.2
2017-Dec-08 10:00N 44°42' E 014°12'5 9.9
2017-Dec-08 09:31N 44°47' E 014°13'510.1
2017-Dec-08 09:00N 44°52' E 014°13'510.2
2017-Dec-08 08:30N 44°57' E 014°13'610.7
2017-Dec-08 07:58N 45°03' E 014°14'510.8
2017-Dec-08 07:30N 45°08' E 014°14'610.9
2017-Dec-08 06:59N 45°13' E 014°19'510.7
2017-Dec-08 06:30N 45°16' E 014°24'3 0.3
2017-Dec-07 19:49N 45°19' E 014°27'2 6.7
2017-Dec-07 19:30N 45°18' E 014°25'713.2
2017-Dec-07 19:00N 45°13' E 014°19'612.8
2017-Dec-07 18:30N 45°07' E 014°15'712.9
2017-Dec-07 18:00N 45°00' E 014°15'612.9
2017-Dec-07 17:30N 44°54' E 014°14'713.1
2017-Dec-07 17:00N 44°47' E 014°14'613.0
2017-Dec-07 16:30N 44°41' E 014°13'612.9
2017-Dec-07 16:00N 44°34' E 014°12'612.5
2017-Dec-07 15:30N 44°28' E 014°13'912.8
2017-Dec-07 14:50N 44°22' E 014°21'412.8
2017-Dec-07 14:30N 44°19' E 014°25'  
2017-Dec-04 08:51N 37°59' E 015°32'514.9
2017-Dec-04 08:30N 38°04' E 015°34'714.2
2017-Dec-04 08:00N 38°11' E 015°35'713.0
2017-Dec-04 07:28N 38°17' E 015°41'714.7
2017-Dec-04 07:01N 38°22' E 015°46'712.9
2017-Dec-04 06:30N 38°27' E 015°52'  
2017-Dec-01 21:12N 38°28' E 015°55'0 0.0
2017-Dec-01 20:24N 38°28' E 015°55'0 0.0
2017-Dec-01 18:06N 38°28' E 015°55'  

Dump ship's entire track history